createdAt,value
2022-07-30T00:00:24.707Z,100647.81
2022-07-30T00:02:53.037Z,100642.69
2022-07-30T00:05:20.932Z,100642.47
2022-07-30T00:07:48.255Z,100645.28
2022-07-30T00:10:15.203Z,100647.31
2022-07-30T00:12:42.296Z,100646.25
2022-07-30T00:15:09.823Z,100635.34
2022-07-30T00:17:38.202Z,100646.38
2022-07-30T00:20:06.396Z,100638.72
2022-07-30T00:22:33.282Z,100641.50
2022-07-30T00:25:00.267Z,100638.38
2022-07-30T00:27:27.431Z,100639.97
2022-07-30T00:29:54.312Z,100639.31
2022-07-30T00:32:21.253Z,100635.69
2022-07-30T00:34:48.113Z,100631.50
2022-07-30T00:37:15.025Z,100639.13
2022-07-30T00:39:41.889Z,100628.75
2022-07-30T00:42:08.823Z,100629.81
2022-07-30T00:44:35.675Z,100629.31
2022-07-30T00:47:02.979Z,100632.16
2022-07-30T00:49:30.553Z,100622.25
2022-07-30T00:52:01.091Z,100616.78
2022-07-30T00:54:27.953Z,100619.47
2022-07-30T00:56:54.824Z,100620.50
2022-07-30T00:59:21.720Z,100610.22
2022-07-30T01:01:48.640Z,100608.03
2022-07-30T01:04:15.560Z,100614.34
2022-07-30T01:06:42.429Z,100602.63
2022-07-30T01:09:09.351Z,100598.13
2022-07-30T01:11:39.801Z,100598.41
2022-07-30T01:14:08.582Z,100602.44
2022-07-30T01:16:37.943Z,100612.16
2022-07-30T01:19:33.803Z,100612.34
2022-07-30T01:22:31.221Z,100609.81
2022-07-30T01:25:04.117Z,100609.91
2022-07-30T01:27:36.825Z,100612.84
2022-07-30T01:30:06.476Z,100607.81
2022-07-30T01:32:37.178Z,100613.41
2022-07-30T01:35:06.618Z,100612.03
2022-07-30T01:37:35.023Z,100609.06
2022-07-30T01:40:03.333Z,100614.31
2022-07-30T01:42:31.061Z,100613.94
2022-07-30T01:44:59.716Z,100603.13
2022-07-30T01:47:28.629Z,100611.56
2022-07-30T01:49:56.510Z,100608.22
2022-07-30T01:52:25.399Z,100617.03
2022-07-30T01:54:54.969Z,100616.25
2022-07-30T01:57:23.328Z,100614.66
2022-07-30T01:59:54.431Z,100618.19
2022-07-30T02:02:21.501Z,100620.22
2022-07-30T02:04:48.619Z,100625.63
2022-07-30T02:07:45.606Z,100623.06
2022-07-30T02:10:19.657Z,100634.22
2022-07-30T02:12:52.631Z,100627.47
2022-07-30T02:16:03.342Z,100642.19
2022-07-30T02:19:13.258Z,100640.19
2022-07-30T02:21:50.437Z,100648.22
2022-07-30T02:24:28.766Z,100652.25
2022-07-30T02:27:04.021Z,100649.78
2022-07-30T02:29:34.991Z,100648.66
2022-07-30T02:32:10.064Z,100653.19
2022-07-30T02:34:39.367Z,100661.81
2022-07-30T02:37:09.049Z,100663.47
2022-07-30T02:39:37.310Z,100650.84
2022-07-30T02:42:06.545Z,100656.22
2022-07-30T02:44:35.876Z,100654.41
2022-07-30T02:47:04.539Z,100655.06
2022-07-30T02:49:35.670Z,100657.81
2022-07-30T02:52:03.962Z,100660.69
2022-07-30T02:54:32.453Z,100664.19
2022-07-30T02:57:01.325Z,100669.78
2022-07-30T02:59:30.549Z,100673.69
2022-07-30T03:01:59.074Z,100669.31
2022-07-30T03:04:27.026Z,100671.22
2022-07-30T03:06:55.934Z,100675.34
2022-07-30T03:09:23.205Z,100664.69
2022-07-30T03:11:52.966Z,100668.97
2022-07-30T03:14:20.167Z,100678.88
2022-07-30T03:16:54.157Z,100666.63
2022-07-30T03:19:23.983Z,100666.28
2022-07-30T03:21:53.291Z,100674.88
2022-07-30T03:24:24.098Z,100678.22
2022-07-30T03:26:54.258Z,100679.88
2022-07-30T03:29:24.557Z,100677.91
2022-07-30T03:31:52.875Z,100678.41
2022-07-30T03:34:22.124Z,100679.59
2022-07-30T03:36:52.180Z,100688.56
2022-07-30T03:39:20.176Z,100681.91
2022-07-30T03:41:48.548Z,100680.06
2022-07-30T03:44:16.492Z,100685.84
2022-07-30T03:46:44.941Z,100686.38
2022-07-30T03:49:12.459Z,100690.38
2022-07-30T03:51:40.083Z,100688.06
2022-07-30T03:54:13.275Z,100689.59
2022-07-30T03:56:41.372Z,100699.81
2022-07-30T03:59:09.250Z,100697.31
2022-07-30T04:01:36.424Z,100701.19
2022-07-30T04:04:11.503Z,100704.13
2022-07-30T04:06:40.211Z,100699.28
2022-07-30T04:09:10.029Z,100703.41
2022-07-30T04:11:41.231Z,100705.56
2022-07-30T04:14:09.258Z,100707.38
2022-07-30T04:16:47.028Z,100707.00
2022-07-30T04:19:29.647Z,100716.03
2022-07-30T04:21:58.800Z,100715.63
2022-07-30T04:24:27.157Z,100718.00
2022-07-30T04:26:54.340Z,100725.47
2022-07-30T04:29:24.652Z,100720.91
2022-07-30T04:31:56.049Z,100722.63
2022-07-30T04:34:22.886Z,100731.44
2022-07-30T04:36:49.921Z,100731.75
2022-07-30T04:39:16.840Z,100734.19
2022-07-30T04:41:49.117Z,100744.19
2022-07-30T04:44:18.842Z,100742.66
2022-07-30T04:46:47.182Z,100746.97
2022-07-30T04:49:16.525Z,100746.69
2022-07-30T04:51:45.231Z,100754.50
2022-07-30T04:54:16.038Z,100751.56
2022-07-30T04:57:01.183Z,100750.09
2022-07-30T04:59:28.449Z,100751.31
2022-07-30T05:01:58.885Z,100756.25
2022-07-30T05:04:28.125Z,100757.69
2022-07-30T05:06:57.022Z,100754.72
2022-07-30T05:09:24.274Z,100761.88
2022-07-30T05:11:53.380Z,100761.59
2022-07-30T05:14:21.515Z,100762.25
2022-07-30T05:16:49.015Z,100770.97
2022-07-30T05:19:17.001Z,100762.72
2022-07-30T05:21:43.920Z,100767.50
2022-07-30T05:24:10.861Z,100771.63
2022-07-30T05:26:38.044Z,100770.03
2022-07-30T05:29:07.186Z,100776.84
2022-07-30T05:31:35.216Z,100773.56
2022-07-30T05:34:05.689Z,100773.34
2022-07-30T05:36:33.540Z,100778.72
2022-07-30T05:39:00.835Z,100772.50
2022-07-30T05:41:32.786Z,100777.78
2022-07-30T05:44:00.982Z,100779.00
2022-07-30T05:46:29.323Z,100774.34
2022-07-30T05:48:56.402Z,100774.88
2022-07-30T05:51:23.575Z,100777.13
2022-07-30T05:53:50.659Z,100780.84
2022-07-30T05:56:17.950Z,100776.53
2022-07-30T05:58:44.791Z,100776.50
2022-07-30T06:01:12.145Z,100780.13
2022-07-30T06:03:39.208Z,100785.28
2022-07-30T06:06:08.049Z,100782.63
2022-07-30T06:08:35.482Z,100788.84
2022-07-30T06:11:03.936Z,100798.97
2022-07-30T06:13:31.085Z,100801.28
2022-07-30T06:15:58.142Z,100798.56
2022-07-30T06:18:25.654Z,100805.13
2022-07-30T06:20:57.006Z,100801.25
2022-07-30T06:23:24.070Z,100806.19
2022-07-30T06:25:51.443Z,100803.06
2022-07-30T06:31:07.628Z,100810.44
2022-07-30T06:33:34.847Z,100805.97
2022-07-30T06:36:01.810Z,100811.94
2022-07-30T06:38:28.707Z,100817.31
2022-07-30T06:41:01.981Z,100813.88
2022-07-30T06:43:32.556Z,100817.97
2022-07-30T06:45:59.861Z,100821.59
2022-07-30T06:48:26.849Z,100821.34
2022-07-30T06:50:53.754Z,100823.88
2022-07-30T06:53:20.633Z,100834.44
2022-07-30T06:55:47.507Z,100827.16
2022-07-30T06:58:14.441Z,100830.59
2022-07-30T07:00:42.884Z,100828.22
2022-07-30T07:03:11.824Z,100829.25
2022-07-30T07:05:39.000Z,100831.19
2022-07-30T07:08:06.014Z,100835.66
2022-07-30T07:10:33.010Z,100836.84
2022-07-30T07:13:00.719Z,100833.31
2022-07-30T07:15:37.070Z,100832.72
2022-07-30T07:18:06.450Z,100833.56
2022-07-30T07:20:34.776Z,100834.66
2022-07-30T07:23:06.605Z,100836.56
2022-07-30T07:25:36.591Z,100829.28
2022-07-30T07:28:11.233Z,100831.09
2022-07-30T07:30:44.350Z,100829.41
2022-07-30T07:33:12.173Z,100833.91
2022-07-30T07:35:40.416Z,100831.91
2022-07-30T07:38:19.344Z,100827.66
2022-07-30T07:40:47.204Z,100821.91
2022-07-30T07:43:14.911Z,100825.88
2022-07-30T07:45:45.645Z,100824.47
2022-07-30T07:48:13.111Z,100821.47
2022-07-30T07:50:40.351Z,100819.78
2022-07-30T07:53:07.345Z,100822.16
2022-07-30T07:55:34.617Z,100825.97
2022-07-30T07:58:01.915Z,100814.19
2022-07-30T08:00:29.171Z,100816.78
2022-07-30T08:02:56.381Z,100799.84
2022-07-30T08:05:23.470Z,100805.28
2022-07-30T08:07:50.551Z,100808.94
2022-07-30T08:10:17.496Z,100813.66
2022-07-30T08:12:44.581Z,100814.88
2022-07-30T08:15:11.843Z,100813.88
2022-07-30T08:17:44.125Z,100828.06
2022-07-30T08:20:13.454Z,100824.16
2022-07-30T08:22:41.166Z,100821.03
2022-07-30T08:25:09.001Z,100830.84
2022-07-30T08:27:36.154Z,100832.25
2022-07-30T08:30:06.692Z,100828.19
2022-07-30T08:32:34.250Z,100822.38
2022-07-30T08:35:01.251Z,100823.31
2022-07-30T08:37:28.870Z,100825.25
2022-07-30T08:39:55.877Z,100808.13
2022-07-30T08:42:23.645Z,100811.88
2022-07-30T08:44:54.465Z,100814.91
2022-07-30T08:47:33.449Z,100812.97
2022-07-30T08:50:04.624Z,100825.53
2022-07-30T08:52:33.600Z,100819.19
2022-07-30T08:55:00.972Z,100824.59
2022-07-30T08:57:32.605Z,100813.44
2022-07-30T09:00:01.786Z,100815.44
2022-07-30T09:02:31.593Z,100815.09
2022-07-30T09:04:58.862Z,100813.13
2022-07-30T09:07:25.859Z,100809.31
2022-07-30T09:09:53.005Z,100817.78
2022-07-30T09:12:46.000Z,100815.31
2022-07-30T09:15:17.427Z,100816.94
2022-07-30T09:17:49.863Z,100808.13
2022-07-30T09:20:18.113Z,100815.81
2022-07-30T09:22:53.517Z,100805.19
2022-07-30T09:25:45.918Z,100799.59
2022-07-30T09:28:15.783Z,100805.75
2022-07-30T09:30:55.559Z,100807.63
2022-07-30T09:33:44.282Z,100800.13
2022-07-30T09:36:18.657Z,100794.34
2022-07-30T09:38:54.488Z,100791.78
2022-07-30T09:41:39.897Z,100786.72
2022-07-30T09:44:07.582Z,100788.28
2022-07-30T09:46:51.730Z,100784.72
2022-07-30T09:49:30.726Z,100785.09
2022-07-30T09:51:57.997Z,100787.09
2022-07-30T09:54:50.966Z,100789.84
2022-07-30T09:57:32.569Z,100792.06
2022-07-30T10:00:23.984Z,100803.53
2022-07-30T10:02:52.410Z,100803.69
2022-07-30T10:05:20.574Z,100803.91
2022-07-30T10:07:57.375Z,100804.84
2022-07-30T10:10:28.473Z,100798.47
2022-07-30T10:13:01.142Z,100790.69
2022-07-30T10:15:35.675Z,100787.41
2022-07-30T10:18:06.684Z,100787.19
2022-07-30T10:20:35.577Z,100782.00
2022-07-30T10:24:46.553Z,100782.47
2022-07-30T10:25:55.224Z,100782.50
2022-07-30T10:28:24.652Z,100777.16
2022-07-30T10:30:54.304Z,100761.03
2022-07-30T10:33:36.524Z,100760.22
2022-07-30T10:36:08.830Z,100752.72
2022-07-30T10:38:41.845Z,100747.34
2022-07-30T10:41:42.271Z,100753.22
2022-07-30T10:44:20.207Z,100741.75
2022-07-30T10:47:10.566Z,100739.50
2022-07-30T10:49:41.488Z,100736.47
2022-07-30T10:52:10.489Z,100740.63
2022-07-30T10:54:44.626Z,100737.50
2022-07-30T10:57:23.113Z,100732.13
2022-07-30T11:00:04.126Z,100726.13
2022-07-30T11:02:35.401Z,100732.06
2022-07-30T11:05:27.335Z,100728.59
2022-07-30T11:08:32.287Z,100736.72
2022-07-30T11:11:19.789Z,100734.97
2022-07-30T11:13:59.101Z,100727.13
2022-07-30T11:16:32.541Z,100722.53
2022-07-30T11:19:56.877Z,100722.66
2022-07-30T11:22:36.659Z,100718.53
2022-07-30T11:25:12.778Z,100726.94
2022-07-30T11:27:51.322Z,100721.63
2022-07-30T11:30:20.765Z,100722.34
2022-07-30T11:33:14.230Z,100723.84
2022-07-30T11:35:42.181Z,100727.69
2022-07-30T11:38:15.409Z,100718.94
2022-07-30T11:40:48.756Z,100714.53
2022-07-30T11:43:36.123Z,100715.44
2022-07-30T11:46:29.639Z,100712.03
2022-07-30T11:49:05.582Z,100709.69
2022-07-30T11:51:43.541Z,100704.78
2022-07-30T11:54:11.988Z,100708.56
2022-07-30T11:57:04.046Z,100712.47
2022-07-30T11:59:31.515Z,100712.72
2022-07-30T12:02:01.845Z,100703.56
2022-07-30T12:04:29.812Z,100705.91
2022-07-30T12:06:56.766Z,100704.22
2022-07-30T12:09:29.180Z,100705.00
2022-07-30T12:11:57.461Z,100701.72
2022-07-30T12:14:24.951Z,100700.50
2022-07-30T12:16:54.194Z,100699.41
2022-07-30T12:19:21.227Z,100699.78
2022-07-30T12:21:52.515Z,100694.59
2022-07-30T12:24:26.595Z,100689.06
2022-07-30T12:27:07.580Z,100693.91
2022-07-30T12:29:35.731Z,100687.59
2022-07-30T12:32:03.307Z,100684.59
2022-07-30T12:34:30.183Z,100687.38
2022-07-30T12:37:08.948Z,100679.38
2022-07-30T12:39:35.887Z,100686.56
2022-07-30T12:42:03.454Z,100677.19
2022-07-30T12:44:42.508Z,100676.41
2022-07-30T12:47:24.817Z,100671.56
2022-07-30T12:49:53.723Z,100673.31
2022-07-30T12:52:31.174Z,100668.53
2022-07-30T12:55:08.896Z,100671.91
2022-07-30T12:58:07.563Z,100668.69
2022-07-30T13:00:44.074Z,100661.19
2022-07-30T13:03:26.898Z,100666.38
2022-07-30T13:05:57.689Z,100661.59
2022-07-30T13:09:03.854Z,100663.28
2022-07-30T13:11:48.671Z,100660.00
2022-07-30T13:14:17.220Z,100658.50
2022-07-30T13:16:44.245Z,100657.63
2022-07-30T13:19:12.220Z,100650.09
2022-07-30T13:21:42.962Z,100646.56
2022-07-30T13:24:18.394Z,100659.16
2022-07-30T13:26:46.143Z,100640.84
2022-07-30T13:29:13.651Z,100648.88
2022-07-30T13:31:42.419Z,100649.56
2022-07-30T13:34:09.719Z,100650.69
2022-07-30T13:36:36.751Z,100651.09
2022-07-30T13:39:04.344Z,100652.50
2022-07-30T13:41:31.511Z,100641.00
2022-07-30T13:43:58.371Z,100639.59
2022-07-30T13:46:25.235Z,100642.34
2022-07-30T13:48:52.234Z,100637.78
2022-07-30T13:51:19.152Z,100637.34
2022-07-30T13:53:46.294Z,100642.34
2022-07-30T13:56:13.365Z,100642.03
2022-07-30T13:58:42.748Z,100640.63
2022-07-30T14:01:17.621Z,100633.88
2022-07-30T14:03:49.861Z,100630.63
2022-07-30T14:06:17.600Z,100634.19
2022-07-30T14:08:44.492Z,100634.19
2022-07-30T14:11:11.450Z,100634.19
2022-07-30T14:13:38.380Z,100621.13
2022-07-30T14:16:22.743Z,100623.19
2022-07-30T14:18:53.535Z,100617.63
2022-07-30T14:21:20.459Z,100614.88
2022-07-30T14:23:47.830Z,100622.59
2022-07-30T14:26:14.970Z,100616.16
2022-07-30T14:28:41.850Z,100627.56
2022-07-30T14:31:08.691Z,100621.44
2022-07-30T14:33:35.637Z,100625.63
2022-07-30T14:36:02.501Z,100628.56
2022-07-30T14:38:29.366Z,100620.09
2022-07-30T14:40:56.429Z,100621.09
2022-07-30T14:43:24.883Z,100616.31
2022-07-30T14:45:53.298Z,100609.47
2022-07-30T14:48:20.501Z,100619.34
2022-07-30T14:51:12.971Z,100625.28
2022-07-30T14:53:34.379Z,100622.03
2022-07-30T14:56:01.372Z,100608.97
2022-07-30T14:58:28.634Z,100624.00
2022-07-30T15:00:55.634Z,100621.81
2022-07-30T15:03:23.381Z,100624.31
2022-07-30T15:05:52.912Z,100613.38
2022-07-30T15:08:19.809Z,100621.06
2022-07-30T15:10:46.699Z,100619.34
2022-07-30T15:13:15.458Z,100626.44
2022-07-30T15:15:46.057Z,100622.00
2022-07-30T15:18:14.107Z,100621.03
2022-07-30T15:20:43.890Z,100619.00
2022-07-30T15:23:13.481Z,100625.97
2022-07-30T15:25:41.867Z,100618.28
2022-07-30T15:28:08.925Z,100630.13
2022-07-30T15:30:36.343Z,100625.03
2022-07-30T15:33:03.251Z,100621.38
2022-07-30T15:35:30.323Z,100616.16
2022-07-30T15:37:59.156Z,100613.25
2022-07-30T15:40:26.365Z,100620.28
2022-07-30T15:42:53.605Z,100618.25
2022-07-30T15:45:20.705Z,100622.19
2022-07-30T15:47:47.614Z,100617.19
2022-07-30T15:50:15.383Z,100621.75
2022-07-30T15:52:42.464Z,100615.75
2022-07-30T15:55:10.299Z,100619.47
2022-07-30T15:57:37.312Z,100607.06
2022-07-30T16:00:38.203Z,100628.25
2022-07-30T16:02:56.422Z,100623.03
2022-07-30T16:05:23.678Z,100630.84
2022-07-30T16:07:50.535Z,100631.28
2022-07-30T16:10:17.423Z,100631.28
2022-07-30T16:12:44.428Z,100626.25
2022-07-30T16:15:11.416Z,100621.94
2022-07-30T16:17:38.384Z,100628.16
2022-07-30T16:20:06.103Z,100627.91
2022-07-30T16:22:33.099Z,100621.47
2022-07-30T16:24:59.957Z,100626.28
2022-07-30T16:27:27.063Z,100618.44
2022-07-30T16:29:54.209Z,100622.50
2022-07-30T16:32:21.422Z,100620.41
2022-07-30T16:34:48.313Z,100624.28
2022-07-30T16:37:15.388Z,100614.34
2022-07-30T16:39:42.248Z,100611.31
2022-07-30T16:42:10.999Z,100617.03
2022-07-30T16:44:37.893Z,100624.50
2022-07-30T16:47:05.154Z,100614.66
2022-07-30T16:49:32.122Z,100619.84
2022-07-30T16:51:59.079Z,100613.41
2022-07-30T16:54:26.032Z,100617.53
2022-07-30T16:56:53.030Z,100619.59
2022-07-30T16:59:20.836Z,100624.03
2022-07-30T17:01:48.411Z,100614.91
2022-07-30T17:04:15.513Z,100618.84
2022-07-30T17:06:44.317Z,100613.19
2022-07-30T17:09:13.204Z,100622.75
2022-07-30T17:11:52.002Z,100620.31
2022-07-30T17:14:22.089Z,100622.28
2022-07-30T17:16:49.524Z,100626.22
2022-07-30T17:19:16.617Z,100629.25
2022-07-30T17:21:43.491Z,100626.28
2022-07-30T17:24:13.701Z,100627.16
2022-07-30T17:26:46.648Z,100620.59
2022-07-30T17:29:15.441Z,100625.63
2022-07-30T17:31:46.097Z,100632.59
2022-07-30T17:34:15.480Z,100637.19
2022-07-30T17:36:50.224Z,100658.19
2022-07-30T17:40:18.841Z,100640.81
2022-07-30T17:42:07.286Z,100646.81
2022-07-30T17:44:35.368Z,100650.03
2022-07-30T17:47:02.291Z,100647.78
2022-07-30T17:49:30.261Z,100645.25
2022-07-30T17:51:57.459Z,100652.84
2022-07-30T17:54:24.449Z,100649.19
2022-07-30T17:56:51.416Z,100654.63
2022-07-30T17:59:18.540Z,100657.56
2022-07-30T18:01:48.073Z,100667.16
2022-07-30T18:05:08.924Z,100663.66
2022-07-30T18:07:41.060Z,100670.75
2022-07-30T18:10:08.561Z,100669.56
2022-07-30T18:12:35.579Z,100676.44
2022-07-30T18:15:06.380Z,100673.59
2022-07-30T18:17:33.407Z,100679.25
2022-07-30T18:20:00.475Z,100677.19
2022-07-30T18:22:29.365Z,100682.63
2022-07-30T18:24:57.537Z,100682.69
2022-07-30T18:27:24.443Z,100682.31
2022-07-30T18:29:51.335Z,100688.13
2022-07-30T18:32:18.280Z,100684.34
2022-07-30T18:34:45.151Z,100685.31
2022-07-30T18:37:12.074Z,100686.09
2022-07-30T18:39:39.003Z,100687.19
2022-07-30T18:42:06.724Z,100695.56
2022-07-30T18:44:34.022Z,100692.66
2022-07-30T18:47:01.042Z,100697.47
2022-07-30T18:49:37.165Z,100701.91
2022-07-30T18:52:07.026Z,100711.00
2022-07-30T18:54:35.875Z,100715.59
2022-07-30T18:57:03.254Z,100717.50
2022-07-30T18:59:30.291Z,100717.50
2022-07-30T19:01:57.132Z,100716.47
2022-07-30T19:04:24.330Z,100718.75
2022-07-30T19:06:51.261Z,100720.69
2022-07-30T19:09:18.456Z,100722.75
2022-07-30T19:11:46.532Z,100714.94
2022-07-30T19:14:14.568Z,100720.31
2022-07-30T19:16:46.209Z,100723.22
2022-07-30T19:19:14.332Z,100729.00
2022-07-30T19:21:41.688Z,100738.56
2022-07-30T19:24:10.079Z,100731.78
2022-07-30T19:26:39.657Z,100735.75
2022-07-30T19:29:10.286Z,100743.38
2022-07-30T19:31:37.256Z,100742.75
2022-07-30T19:34:04.616Z,100750.56
2022-07-30T19:36:31.623Z,100766.00
2022-07-30T19:38:58.906Z,100760.06
2022-07-30T19:41:27.782Z,100764.59
2022-07-30T19:43:58.289Z,100770.31
2022-07-30T19:46:25.549Z,100771.72
2022-07-30T19:48:52.515Z,100780.41
2022-07-30T19:51:20.916Z,100783.94
2022-07-30T19:53:52.411Z,100788.47
2022-07-30T19:56:19.576Z,100790.34
2022-07-30T19:58:46.558Z,100793.66
2022-07-30T20:01:15.696Z,100790.53
2022-07-30T20:03:45.795Z,100797.56
2022-07-30T20:06:16.042Z,100799.25
2022-07-30T20:11:36.116Z,100793.91
2022-07-30T20:14:04.390Z,100800.50
2022-07-30T20:16:31.411Z,100799.88
2022-07-30T20:18:59.283Z,100799.25
2022-07-30T20:21:56.406Z,100798.66
2022-07-30T20:24:14.677Z,100796.38
2022-07-30T20:26:43.900Z,100803.81
2022-07-30T20:29:18.948Z,100807.31
2022-07-30T20:31:46.886Z,100807.94
2022-07-30T20:34:19.450Z,100815.34
2022-07-30T20:36:47.755Z,100810.38
2022-07-30T20:39:18.377Z,100807.94
2022-07-30T20:41:46.941Z,100807.09
2022-07-30T20:44:23.444Z,100803.78
2022-07-30T20:46:52.679Z,100807.50
2022-07-30T20:49:24.184Z,100814.91
2022-07-30T20:52:01.320Z,100811.81
2022-07-30T20:54:30.602Z,100813.25
2022-07-30T20:56:57.868Z,100815.13
2022-07-30T20:59:26.825Z,100813.06
2022-07-30T21:01:55.803Z,100814.47
2022-07-30T21:07:10.343Z,100820.22
2022-07-30T21:09:52.224Z,100823.53
2022-07-30T21:12:19.721Z,100813.03
2022-07-30T21:14:59.937Z,100814.88
2022-07-30T21:17:26.790Z,100809.97
2022-07-30T21:19:55.242Z,100811.97
2022-07-30T21:22:22.601Z,100821.66
2022-07-30T21:24:51.030Z,100820.03
2022-07-30T21:27:18.061Z,100832.56
2022-07-30T21:29:45.975Z,100820.22
2022-07-30T21:32:14.357Z,100828.03
2022-07-30T21:34:46.327Z,100828.25
2022-07-30T21:37:15.723Z,100823.94
2022-07-30T21:39:42.934Z,100829.09
2022-07-30T21:42:10.120Z,100827.41
2022-07-30T21:44:38.410Z,100819.41
2022-07-30T21:47:08.363Z,100824.13
2022-07-30T21:49:39.380Z,100829.09
2022-07-30T21:52:08.601Z,100826.41
2022-07-30T21:54:48.263Z,100834.44
2022-07-30T21:57:26.193Z,100832.97
2022-07-30T22:00:22.507Z,100834.81
2022-07-30T22:02:52.965Z,100841.19
2022-07-30T22:05:21.711Z,100842.81
2022-07-30T22:07:50.520Z,100846.53
2022-07-30T22:10:21.617Z,100851.06
2022-07-30T22:12:48.826Z,100848.59
2022-07-30T22:15:18.029Z,100847.16
2022-07-30T22:17:58.790Z,100854.34
2022-07-30T22:20:29.438Z,100851.06
2022-07-30T22:23:00.585Z,100854.75
2022-07-30T22:25:39.824Z,100848.59
2022-07-30T22:28:12.538Z,100849.59
2022-07-30T22:30:41.097Z,100858.22
2022-07-30T22:33:15.716Z,100865.00
2022-07-30T22:35:46.600Z,100849.78
2022-07-30T22:38:17.030Z,100852.25
2022-07-30T22:40:46.637Z,100858.00
2022-07-30T22:43:15.954Z,100844.44
2022-07-30T22:45:48.122Z,100847.34
2022-07-30T22:48:19.122Z,100842.00
2022-07-30T22:50:48.587Z,100836.66
2022-07-30T22:54:11.701Z,100843.00
2022-07-30T22:56:06.214Z,100835.81
2022-07-30T22:58:41.179Z,100844.22
2022-07-30T23:01:10.935Z,100848.94
2022-07-30T23:03:38.342Z,100849.78
2022-07-30T23:06:05.191Z,100844.84
2022-07-30T23:08:33.438Z,100840.91
2022-07-30T23:11:00.908Z,100842.50
2022-07-30T23:12:17.269Z,100796.38
2022-07-30T23:12:26.730Z,100819.84
2022-07-30T23:13:28.546Z,100839.00
2022-07-30T23:15:55.688Z,100837.78
2022-07-30T23:18:22.648Z,100837.34
2022-07-30T23:20:49.541Z,100834.09
2022-07-30T23:23:16.454Z,100829.13
2022-07-30T23:25:43.353Z,100824.63
2022-07-30T23:28:10.231Z,100828.72
2022-07-30T23:30:37.168Z,100832.41
2022-07-30T23:33:04.292Z,100833.22
2022-07-30T23:35:31.485Z,100831.56
2022-07-30T23:37:58.419Z,100834.59
2022-07-30T23:40:25.532Z,100835.25
2022-07-30T23:42:52.634Z,100831.09
2022-07-30T23:45:20.023Z,100833.94
2022-07-30T23:48:00.616Z,100827.81
2022-07-30T23:50:32.953Z,100836.44
2022-07-30T23:53:01.212Z,100832.56
2022-07-30T23:55:30.006Z,100826.19
2022-07-30T23:57:57.986Z,100837.69
